Time;durP1;ratioP1;P1;durP2;ratioP2;P2;SDS_P1;SDS_P2;PMS_P1;PMS_P2;Temp;Humidity;BMP_temperature;BMP_pressure;BME280_temperature;BME280_humidity;BME280_pressure;Samples;Min_cycle;Max_cycle;Signal;HPM_P1;HPM_P2
2022/08/14 00:00:15;;;;;;;7.70;7.10;;;;;;;19.64;86.23;100354.98;84787;1346;22219;-71
2022/08/14 00:02:44;;;;;;;9.40;8.50;;;;;;;19.65;86.36;100351.21;84782;1346;22295;-71
2022/08/14 00:04:53;;;;;;;8.50;7.70;;;;;;;19.65;86.42;100350.64;84834;1346;22881;-71
2022/08/14 00:07:02;;;;;;;8.90;8.10;;;;;;;19.66;86.34;100344.75;84777;1348;23039;-71
2022/08/14 00:09:11;;;;;;;8.50;7.70;;;;;;;19.67;86.41;100342.23;84778;1348;22808;-72
2022/08/14 00:11:19;;;;;;;9.20;8.00;;;;;;;19.66;86.23;100341.09;84778;1347;22905;-72
2022/08/14 00:13:28;;;;;;;8.50;7.30;;;;;;;19.66;86.29;100339.13;84824;1345;22331;-72
2022/08/14 00:15:40;;;;;;;9.30;8.30;;;;;;;19.66;86.63;100338.74;84788;1346;22222;-72
2022/08/14 00:17:52;;;;;;;8.40;7.60;;;;;;;19.66;86.68;100336.43;84776;1345;23054;-72
2022/08/14 00:20:01;;;;;;;9.00;8.20;;;;;;;19.67;86.77;100334.96;84795;1347;22199;-71
2022/08/14 00:22:11;;;;;;;13.20;9.20;;;;;;;19.68;86.85;100327.06;84772;1347;22187;-71
2022/08/14 00:24:19;;;;;;;9.30;8.50;;;;;;;19.70;86.92;100328.86;84787;1348;22199;-71
2022/08/14 00:26:28;;;;;;;11.20;9.70;;;;;;;19.71;86.75;100325.61;84834;1349;22921;-71
2022/08/14 00:28:37;;;;;;;11.30;9.40;;;;;;;19.71;86.60;100320.46;84783;1346;22970;-71
2022/08/14 00:30:46;;;;;;;8.60;7.90;;;;;;;19.71;86.60;100315.32;84831;1347;22835;-71
2022/08/14 00:32:55;;;;;;;9.60;8.30;;;;;;;19.72;86.55;100313.70;84776;1350;23105;-71
2022/08/14 00:35:05;;;;;;;8.40;7.60;;;;;;;19.74;86.42;100315.83;84789;1347;22202;-71
2022/08/14 00:37:14;;;;;;;9.50;8.60;;;;;;;19.75;86.27;100309.55;84766;1347;22206;-71
2022/08/14 00:39:23;;;;;;;9.00;8.20;;;;;;;19.74;85.96;100311.37;84789;1346;22734;-71
2022/08/14 00:41:35;;;;;;;8.50;7.70;;;;;;;19.74;85.77;100312.79;84779;1346;22255;-71
2022/08/14 00:43:44;;;;;;;8.50;7.30;;;;;;;19.73;85.62;100311.27;84770;1347;22913;-71
2022/08/14 00:45:52;;;;;;;12.20;7.80;;;;;;;19.72;85.47;100309.94;84830;1345;22236;-71
2022/08/14 00:48:01;;;;;;;8.70;7.90;;;;;;;19.73;85.35;100310.78;84790;1347;22218;-71
2022/08/14 00:50:12;;;;;;;8.30;7.50;;;;;;;19.73;85.14;100310.27;84846;1342;22282;-71
2022/08/14 00:52:21;;;;;;;10.20;8.00;;;;;;;19.71;84.99;100309.35;84793;1346;22186;-72
2022/08/14 00:54:30;;;;;;;8.60;7.80;;;;;;;19.71;84.94;100305.65;84793;1347;22880;-71
2022/08/14 00:56:39;;;;;;;8.50;7.40;;;;;;;19.69;84.64;100305.55;84772;1347;22179;-71
2022/08/14 00:58:48;;;;;;;12.40;7.90;;;;;;;19.70;84.54;100306.44;84791;1347;22227;-71
2022/08/14 01:00:58;;;;;;;13.30;8.10;;;;;;;19.70;84.40;100302.16;84788;1347;22913;-73
2022/08/14 01:03:07;;;;;;;7.80;7.10;;;;;;;19.71;84.20;100297.84;84792;1350;22188;-72
2022/08/14 01:05:23;;;;;;;11.90;8.00;;;;;;;19.72;84.02;100299.33;84834;1346;22776;-72
2022/08/14 01:07:31;;;;;;;9.00;7.70;;;;;;;19.74;84.01;100297.93;84779;1346;22339;-72
2022/08/14 01:09:40;;;;;;;8.00;7.20;;;;;;;19.74;83.76;100294.55;84841;1347;22920;-72
2022/08/14 01:11:49;;;;;;;8.20;7.30;;;;;;;19.75;83.67;100296.66;84779;1346;22194;-72
2022/08/14 01:14:01;;;;;;;9.40;7.30;;;;;;;19.75;83.41;100295.75;84785;1347;22841;-72
2022/08/14 01:16:11;;;;;;;8.40;7.30;;;;;;;19.75;83.08;100296.41;84771;1346;22227;-72
2022/08/14 01:21:05;;;;;;;6.80;5.90;;;;;;;19.79;82.60;100289.41;84781;1347;22992;-71
2022/08/14 01:23:15;;;;;;;6.80;6.20;;;;;;;19.78;82.48;100291.21;84840;1347;22802;-71
2022/08/14 01:25:24;;;;;;;9.00;6.20;;;;;;;19.80;82.30;100287.92;84779;1347;23003;-72
2022/08/14 01:27:34;;;;;;;7.40;6.50;;;;;;;19.81;82.12;100286.25;84787;1347;22209;-72
2022/08/14 01:29:43;;;;;;;9.20;6.50;;;;;;;19.82;81.94;100284.73;84804;1346;22791;-71
2022/08/14 01:31:51;;;;;;;6.40;5.60;;;;;;;19.83;81.76;100283.93;84847;1347;22191;-71
2022/08/14 01:34:02;;;;;;;7.00;6.40;;;;;;;19.84;81.45;100278.77;84775;1349;22729;-71
2022/08/14 01:36:12;;;;;;;7.30;6.60;;;;;;;19.83;81.09;100278.47;84853;1347;22878;-71
2022/08/14 01:38:19;;;;;;;;;;;;;;;19.84;81.10;100285.16;84808;1347;22967;-71
2022/08/14 01:40:28;;;;;;;7.40;6.70;;;;;;;19.81;81.07;100286.57;84857;1347;22206;-71
2022/08/14 01:42:37;;;;;;;5.70;5.00;;;;;;;19.82;80.87;100286.33;84781;1347;22724;-71
2022/08/14 01:44:54;;;;;;;11.70;6.00;;;;;;;19.84;80.99;100285.31;84860;1347;23035;-71
2022/08/14 01:47:08;;;;;;;5.40;5.00;;;;;;;19.84;80.78;100287.04;84774;1347;22787;-71
2022/08/14 01:49:17;;;;;;;7.00;5.80;;;;;;;19.84;80.68;100293.27;84849;1347;22217;-71
2022/08/14 01:51:27;;;;;;;9.30;6.40;;;;;;;19.81;80.67;100294.02;84779;1346;22235;-71
2022/08/14 01:53:36;;;;;;;7.90;6.50;;;;;;;19.80;81.03;100297.45;84777;1349;22872;-71
2022/08/14 01:55:46;;;;;;;8.50;7.60;;;;;;;19.79;81.42;100297.54;84779;1346;22259;-71
2022/08/14 01:57:55;;;;;;;12.60;8.50;;;;;;;19.78;81.83;100304.55;84780;1346;22282;-71
2022/08/14 02:00:04;;;;;;;14.60;9.00;;;;;;;19.77;81.85;100300.90;84837;1347;22196;-71
2022/08/14 02:02:30;;;;;;;11.60;8.70;;;;;;;19.76;82.06;100303.62;84788;1347;22290;-72
2022/08/14 02:04:59;;;;;;;17.90;9.60;;;;;;;19.72;82.33;100299.56;84629;1349;22336;-72
2022/08/14 02:07:51;;;;;;;10.10;8.40;;;;;;;19.69;82.36;100301.38;84805;1347;22202;-71
2022/08/14 02:10:20;;;;;;;11.50;8.40;;;;;;;19.65;82.33;100301.27;84779;1347;22753;-71
2022/08/14 02:12:31;;;;;;;17.60;8.90;;;;;;;19.66;82.77;100299.80;84758;1347;23053;-71
2022/08/14 02:15:04;;;;;;;13.70;8.60;;;;;;;19.67;82.69;100299.95;84813;1340;22774;-71
2022/08/14 02:17:24;;;;;;;;;;;;;;;19.65;82.71;100297.58;84776;1347;23023;-71
2022/08/14 02:19:45;;;;;;;8.70;6.40;;;;;;;19.62;82.21;100297.70;84818;1346;22348;-72
2022/08/14 02:21:56;;;;;;;9.80;6.10;;;;;;;19.63;81.93;100297.38;84822;1349;22250;-72
2022/08/14 02:24:06;;;;;;;9.90;6.80;;;;;;;19.63;81.82;100299.19;84801;1347;22177;-72
2022/08/14 02:26:20;;;;;;;8.20;6.60;;;;;;;19.61;81.84;100296.48;84775;1346;23014;-72
2022/08/14 02:28:59;;;;;;;9.60;6.80;;;;;;;19.60;81.71;100289.64;84813;1347;22321;-72
2022/08/14 02:31:09;;;;;;;7.00;6.00;;;;;;;19.58;81.51;100289.42;84616;1350;22260;-72
2022/08/14 02:33:18;;;;;;;12.50;6.30;;;;;;;19.57;81.39;100289.15;84608;1352;22808;-71
2022/08/14 02:35:27;;;;;;;13.40;7.00;;;;;;;19.57;81.51;100289.48;84616;1350;22969;-72
2022/08/14 02:37:35;;;;;;;7.30;6.20;;;;;;;19.56;81.46;100286.02;84620;1349;22249;-72
2022/08/14 02:40:26;;;;;;;8.30;5.60;;;;;;;19.57;81.30;100285.25;84633;1349;22255;-72
2022/08/14 02:42:36;;;;;;;5.80;5.30;;;;;;;19.57;81.01;100274.09;84461;1351;22243;-72
2022/08/14 02:44:45;;;;;;;8.70;6.20;;;;;;;19.57;81.18;100274.96;84626;1350;22252;-72
2022/08/14 02:46:56;;;;;;;8.00;5.40;;;;;;;19.57;80.93;100272.34;84627;1350;22242;-72
2022/08/14 02:49:05;;;;;;;6.80;5.40;;;;;;;19.57;80.60;100271.09;84610;1349;22287;-72
2022/08/14 02:51:16;;;;;;;7.30;5.50;;;;;;;19.58;80.64;100267.08;84625;1350;22752;-71
2022/08/14 02:53:24;;;;;;;5.70;5.10;;;;;;;19.59;80.30;100266.88;84621;1350;23056;-71
2022/08/14 02:55:33;;;;;;;6.40;5.80;;;;;;;19.59;80.31;100263.30;84607;1349;22927;-72
2022/08/14 02:57:42;;;;;;;6.80;6.20;;;;;;;19.60;80.27;100259.40;84618;1350;22521;-72
2022/08/14 02:59:50;;;;;;;7.00;5.20;;;;;;;19.59;80.11;100261.20;84643;1349;22268;-72
2022/08/14 03:01:59;;;;;;;8.50;5.40;;;;;;;19.58;80.07;100265.88;84614;1350;22229;-72
2022/08/14 03:04:09;;;;;;;6.40;5.80;;;;;;;19.57;80.03;100265.80;84770;1347;22930;-72
2022/08/14 03:06:21;;;;;;;13.40;6.20;;;;;;;19.55;80.28;100266.10;84770;1346;22200;-72
2022/08/14 03:08:32;;;;;;;8.20;6.30;;;;;;;19.54;80.20;100265.30;84704;1349;22195;-72
2022/08/14 03:10:41;;;;;;;8.30;6.20;;;;;;;19.52;80.03;100265.11;84777;1347;22897;-71
2022/08/14 03:12:50;;;;;;;7.30;5.50;;;;;;;19.51;80.12;100265.52;84772;1349;23031;-71
2022/08/14 03:14:59;;;;;;;8.30;5.80;;;;;;;19.50;79.90;100268.83;84767;1350;22934;-72
2022/08/14 03:17:10;;;;;;;11.20;5.60;;;;;;;19.48;80.01;100269.09;84770;1346;23011;-72
2022/08/14 03:19:18;;;;;;;7.50;5.50;;;;;;;19.49;80.02;100258.05;84774;1346;22198;-72
2022/08/14 03:21:30;;;;;;;10.20;5.90;;;;;;;19.51;80.01;100257.73;84762;1347;22778;-72
2022/08/14 03:23:39;;;;;;;7.20;5.90;;;;;;;19.50;79.94;100254.99;84767;1346;22314;-72
2022/08/14 03:25:47;;;;;;;6.10;5.30;;;;;;;19.51;79.97;100249.27;84773;1348;22073;-72
2022/08/14 03:27:56;;;;;;;6.70;5.40;;;;;;;19.52;80.01;100244.05;84765;1346;22195;-72
2022/08/14 03:30:10;;;;;;;7.60;6.00;;;;;;;19.52;79.82;100240.52;84763;1350;23017;-72
2022/08/14 03:32:19;;;;;;;5.90;4.80;;;;;;;19.50;79.76;100238.17;84781;1346;22907;-72
2022/08/14 03:34:28;;;;;;;7.30;5.20;;;;;;;19.50;79.81;100236.23;84795;1347;22251;-72
2022/08/14 03:36:38;;;;;;;12.60;5.60;;;;;;;19.51;79.76;100241.30;84780;1347;23180;-71
2022/08/14 03:38:48;;;;;;;6.10;5.10;;;;;;;19.52;79.88;100243.91;84778;1347;22301;-71
2022/08/14 03:40:55;;;;;;;;;;;;;;;19.52;79.91;100250.95;84785;1348;23039;-72
2022/08/14 03:43:04;;;;;;;7.10;5.70;;;;;;;19.51;80.11;100246.99;84793;1346;22790;-72
2022/08/14 03:45:14;;;;;;;6.40;4.70;;;;;;;19.51;80.06;100246.23;84786;1347;22278;-72
2022/08/14 03:47:23;;;;;;;7.00;4.80;;;;;;;19.51;80.09;100243.78;84771;1350;22268;-72
2022/08/14 03:49:31;;;;;;;7.50;5.90;;;;;;;19.52;80.07;100241.40;84770;1347;22596;-72
2022/08/14 03:51:40;;;;;;;5.70;4.90;;;;;;;19.53;80.08;100244.11;84784;1347;22826;-72
2022/08/14 03:53:49;;;;;;;6.10;5.50;;;;;;;19.55;80.27;100247.30;84779;1348;23150;-72
2022/08/14 03:55:58;;;;;;;7.60;5.70;;;;;;;19.57;80.26;100244.02;84814;1347;23024;-72
2022/08/14 03:58:07;;;;;;;7.00;5.40;;;;;;;19.58;80.26;100246.92;84809;1347;22314;-72
2022/08/14 04:00:17;;;;;;;10.30;6.60;;;;;;;19.60;80.21;100242.05;84836;1344;22329;-72
2022/08/14 04:02:26;;;;;;;6.10;5.50;;;;;;;19.61;80.22;100242.86;84830;1349;22810;-72
2022/08/14 04:04:34;;;;;;;5.80;5.30;;;;;;;19.62;80.26;100244.05;84821;1346;22730;-72
2022/08/14 04:06:43;;;;;;;5.80;5.20;;;;;;;19.64;80.13;100237.52;84814;1346;22876;-72
2022/08/14 04:08:52;;;;;;;10.40;5.30;;;;;;;19.66;80.22;100236.45;84828;1349;22207;-72
2022/08/14 04:11:01;;;;;;;7.30;5.20;;;;;;;19.69;80.28;100241.30;84822;1347;22851;-72
2022/08/14 04:13:10;;;;;;;9.10;5.90;;;;;;;19.73;80.34;100246.14;84829;1347;22882;-71
2022/08/14 04:15:20;;;;;;;6.00;5.40;;;;;;;19.76;80.23;100242.40;84828;1346;22200;-71
2022/08/14 04:17:28;;;;;;;5.80;5.20;;;;;;;19.81;80.30;100237.59;84820;1347;22320;-71
2022/08/14 04:19:37;;;;;;;8.90;6.00;;;;;;;19.84;80.25;100242.96;84825;1347;22957;-72
2022/08/14 04:21:49;;;;;;;12.50;6.40;;;;;;;19.89;80.07;100248.27;84824;1346;22992;-72
2022/08/14 04:23:59;;;;;;;9.20;5.40;;;;;;;19.92;79.90;100249.46;84529;1347;414523;-72
2022/08/14 04:26:11;;;;;;;12.90;5.30;;;;;;;19.98;80.00;100251.77;84823;1338;22246;-72
2022/08/14 04:28:20;;;;;;;10.70;5.70;;;;;;;20.05;79.74;100252.09;84839;1349;22258;-72
2022/08/14 04:30:29;;;;;;;6.70;5.70;;;;;;;20.13;79.55;100253.12;84842;1347;22299;-72
2022/08/14 04:32:38;;;;;;;5.60;5.00;;;;;;;20.19;79.41;100248.18;84827;1347;22697;-72
2022/08/14 04:34:46;;;;;;;5.90;5.30;;;;;;;20.25;79.38;100248.23;84844;1343;22922;-72
2022/08/14 04:44:24;;;;;;;7.70;5.30;;;;;;;20.49;78.50;100252.01;84849;1347;22894;-72
2022/08/14 04:46:35;;;;;;;6.70;5.60;;;;;;;20.53;78.41;100257.10;84831;1346;22811;-72
2022/08/14 04:48:44;;;;;;;12.50;5.20;;;;;;;20.56;78.13;100263.24;84836;1346;22275;-72
2022/08/14 04:50:55;;;;;;;6.90;5.60;;;;;;;20.57;77.84;100262.86;84827;1347;22892;-72
2022/08/14 04:53:04;;;;;;;6.60;5.50;;;;;;;20.58;77.40;100265.80;84823;1346;22330;-72
2022/08/14 04:55:13;;;;;;;7.30;5.90;;;;;;;20.59;77.47;100266.94;84819;1347;22919;-72
2022/08/14 04:57:22;;;;;;;5.80;5.20;;;;;;;20.63;77.43;100265.58;84824;1347;23055;-72
2022/08/14 04:59:30;;;;;;;7.00;5.10;;;;;;;20.68;77.40;100261.59;84825;1347;22780;-72
2022/08/14 05:01:43;;;;;;;7.40;4.70;;;;;;;20.73;77.11;100259.73;84771;1347;22880;-72
2022/08/14 05:03:53;;;;;;;6.30;5.60;;;;;;;20.79;77.14;100262.10;84845;1346;22423;-72
2022/08/14 05:06:04;;;;;;;6.50;5.90;;;;;;;20.86;76.75;100262.27;84831;1347;22281;-72
2022/08/14 05:08:13;;;;;;;5.40;4.90;;;;;;;20.88;76.44;100254.27;84825;1346;22753;-72
2022/08/14 05:10:24;;;;;;;7.60;5.00;;;;;;;20.91;76.39;100247.64;84825;1347;22302;-72
2022/08/14 05:12:33;;;;;;;7.10;5.90;;;;;;;20.92;76.28;100246.13;84810;1347;22878;-72
2022/08/14 05:14:42;;;;;;;6.80;5.50;;;;;;;20.96;76.36;100250.95;84830;1342;22230;-72
2022/08/14 05:16:51;;;;;;;7.00;5.80;;;;;;;20.97;76.04;100249.60;84827;1346;22207;-71
2022/08/14 05:19:01;;;;;;;14.50;6.20;;;;;;;20.97;75.88;100251.73;84832;1347;22821;-71
2022/08/14 05:21:10;;;;;;;9.50;6.60;;;;;;;20.96;75.88;100251.64;84826;1347;22886;-72
2022/08/14 05:23:21;;;;;;;8.50;7.20;;;;;;;20.98;76.11;100255.89;84788;1350;22830;-72
2022/08/14 05:25:30;;;;;;;7.90;6.60;;;;;;;21.03;76.10;100258.34;84831;1347;22207;-72
2022/08/14 05:27:39;;;;;;;8.80;6.00;;;;;;;21.06;75.97;100262.17;84829;1346;22311;-72
2022/08/14 05:29:47;;;;;;;9.70;6.10;;;;;;;21.08;75.92;100258.82;84851;1344;22212;-72
2022/08/14 05:31:56;;;;;;;6.90;6.10;;;;;;;21.19;76.29;100258.09;84824;1346;22870;-72
2022/08/14 05:34:05;;;;;;;9.80;5.80;;;;;;;21.38;76.12;100256.27;84839;1347;22827;-72
2022/08/14 05:36:14;;;;;;;9.00;7.40;;;;;;;21.65;76.32;100248.16;84832;1347;22843;-73
2022/08/14 05:38:23;;;;;;;10.90;7.50;;;;;;;22.23;77.04;100250.90;84837;1347;22869;-73
2022/08/14 05:40:33;;;;;;;11.40;7.20;;;;;;;23.05;76.08;100246.20;84849;1346;22293;-72
2022/08/14 05:42:42;;;;;;;10.40;7.20;;;;;;;23.62;74.43;100249.42;84825;1347;22198;-72
2022/08/14 05:44:51;;;;;;;7.00;6.20;;;;;;;24.27;72.30;100248.48;84836;1347;22062;-72
2022/08/14 05:47:00;;;;;;;7.10;6.40;;;;;;;24.44;70.01;100242.35;84818;1347;22369;-72
2022/08/14 05:49:07;;;;;;;;;;;;;;;24.32;68.20;100246.22;84852;1347;22261;-72
2022/08/14 05:51:16;;;;;;;7.60;6.20;;;;;;;24.14;67.89;100251.03;84810;1346;22248;-72
2022/08/14 05:53:25;;;;;;;7.30;6.70;;;;;;;24.45;69.47;100252.81;84833;1347;22234;-72
2022/08/14 05:55:34;;;;;;;10.00;6.30;;;;;;;25.14;69.40;100245.21;84826;1345;22870;-72
2022/08/14 05:57:54;;;;;;;11.00;6.50;;;;;;;25.90;67.41;100246.21;84845;1347;22222;-72
2022/08/14 06:00:02;;;;;;;8.90;6.30;;;;;;;26.68;65.42;100240.43;84828;1346;22216;-72
2022/08/14 06:02:11;;;;;;;10.10;6.60;;;;;;;27.29;61.75;100235.88;84815;1347;22956;-72
2022/08/14 06:04:20;;;;;;;11.70;6.50;;;;;;;27.70;60.98;100230.27;84832;1347;22760;-73
2022/08/14 06:06:30;;;;;;;9.20;6.80;;;;;;;28.13;60.39;100228.85;84815;1347;22786;-73
2022/08/14 06:08:38;;;;;;;7.10;6.00;;;;;;;28.42;58.90;100229.48;84830;1346;22834;-73
2022/08/14 06:10:47;;;;;;;7.30;6.20;;;;;;;28.54;58.56;100225.86;84828;1347;22221;-73
2022/08/14 06:12:56;;;;;;;7.20;6.00;;;;;;;28.85;57.67;100228.90;84825;1347;23022;-73
2022/08/14 06:15:05;;;;;;;8.70;7.10;;;;;;;29.00;57.35;100233.05;84815;1347;22895;-72
2022/08/14 06:17:14;;;;;;;6.90;6.20;;;;;;;29.31;56.40;100229.95;84833;1347;22213;-72
2022/08/14 06:19:23;;;;;;;9.60;6.60;;;;;;;29.70;55.54;100227.61;84847;1347;22281;-72
2022/08/14 06:21:32;;;;;;;8.60;6.30;;;;;;;30.03;53.71;100228.46;84828;1346;22201;-72
2022/08/14 06:23:41;;;;;;;10.00;7.20;;;;;;;30.30;53.52;100232.40;84832;1345;22746;-72
2022/08/14 06:25:50;;;;;;;8.00;7.20;;;;;;;30.30;51.86;100232.73;84837;1347;22979;-72
2022/08/14 06:27:58;;;;;;;9.30;7.30;;;;;;;30.20;52.01;100234.48;84810;1347;23003;-73
2022/08/14 06:30:10;;;;;;;7.40;6.90;;;;;;;30.50;52.07;100227.69;84834;1347;22411;-72
2022/08/14 06:32:19;;;;;;;11.00;7.20;;;;;;;30.71;51.24;100227.84;84824;1347;23170;-72
2022/08/14 06:34:27;;;;;;;9.40;7.30;;;;;;;30.50;50.17;100225.89;84847;1340;22752;-72
2022/08/14 06:36:37;;;;;;;8.90;7.80;;;;;;;30.20;50.06;100226.52;84836;1347;22266;-72
2022/08/14 06:38:46;;;;;;;10.60;7.40;;;;;;;30.08;50.70;100225.97;84838;1347;22320;-72
2022/08/14 06:40:55;;;;;;;8.40;7.10;;;;;;;30.33;51.16;100230.69;84826;1347;22085;-72
2022/08/14 06:43:04;;;;;;;11.60;7.40;;;;;;;30.11;50.06;100234.27;84837;1347;22201;-72
2022/08/14 06:45:14;;;;;;;8.50;7.30;;;;;;;29.66;50.71;100231.67;84832;1347;22991;-72
2022/08/14 06:47:22;;;;;;;10.20;8.20;;;;;;;29.74;51.13;100228.75;84827;1347;22199;-72
2022/08/14 06:49:31;;;;;;;9.80;8.80;;;;;;;29.39;50.42;100228.86;84831;1347;22242;-72
2022/08/14 06:51:45;;;;;;;10.10;8.60;;;;;;;28.86;51.18;100229.71;84825;1347;22310;-72
2022/08/14 06:53:54;;;;;;;11.50;8.60;;;;;;;28.37;52.17;100233.05;84837;1346;22892;-72
2022/08/14 06:56:03;;;;;;;10.80;9.40;;;;;;;28.14;53.01;100234.27;84824;1347;22214;-72
2022/08/14 06:58:14;;;;;;;11.30;10.20;;;;;;;27.82;53.38;100235.80;84822;1346;22891;-72
2022/08/14 07:05:52;;;;;;;10.50;9.50;;;;;;;27.48;56.69;100231.83;84894;1344;22220;-73
2022/08/14 07:08:01;;;;;;;9.40;8.50;;;;;;;27.75;56.70;100237.27;84913;1344;22856;-73
2022/08/14 07:10:10;;;;;;;10.90;9.10;;;;;;;28.02;55.81;100235.13;84933;1344;22779;-73
2022/08/14 07:12:17;;;;;;;;;;;;;;;27.93;55.02;100235.43;84936;1344;22412;-72
2022/08/14 07:14:26;;;;;;;12.20;8.90;;;;;;;27.80;55.66;100236.38;84906;1344;22285;-72
2022/08/14 07:16:35;;;;;;;10.40;9.30;;;;;;;28.18;55.07;100235.66;84935;1344;22973;-72
2022/08/14 07:18:44;;;;;;;10.30;9.30;;;;;;;28.60;54.51;100236.83;84927;1344;22877;-72
2022/08/14 07:20:53;;;;;;;10.80;9.90;;;;;;;28.94;54.36;100235.11;84925;1344;22231;-72
2022/08/14 07:23:02;;;;;;;10.40;9.40;;;;;;;29.41;53.26;100235.45;84907;1344;22746;-72
2022/08/14 07:25:11;;;;;;;12.60;9.10;;;;;;;29.75;52.44;100232.25;84931;1344;22843;-73
2022/08/14 07:27:20;;;;;;;11.70;9.70;;;;;;;29.73;51.94;100229.81;84922;1345;22215;-73
2022/08/14 07:29:29;;;;;;;9.40;8.60;;;;;;;29.64;52.48;100231.84;84913;1348;22911;-73
2022/08/14 07:31:38;;;;;;;10.00;9.30;;;;;;;29.64;52.38;100229.55;84918;1345;22928;-72
2022/08/14 07:33:48;;;;;;;11.10;8.30;;;;;;;29.52;51.88;100227.50;84873;1346;22776;-72
2022/08/14 07:35:58;;;;;;;11.20;8.70;;;;;;;29.51;52.48;100227.06;84921;1347;22320;-72
2022/08/14 07:38:07;;;;;;;11.10;8.70;;;;;;;29.89;52.48;100222.84;84908;1345;22200;-73
2022/08/14 07:40:17;;;;;;;9.50;8.60;;;;;;;30.49;51.75;100224.27;84914;1342;22268;-73
2022/08/14 07:42:27;;;;;;;12.30;10.00;;;;;;;31.11;50.68;100217.82;84935;1344;22185;-72
2022/08/14 07:44:36;;;;;;;9.20;8.30;;;;;;;31.61;49.33;100219.23;84922;1344;22910;-72
2022/08/14 07:46:45;;;;;;;9.70;8.80;;;;;;;31.71;47.60;100213.72;84918;1344;22244;-72
2022/08/14 07:48:53;;;;;;;11.10;8.80;;;;;;;31.92;48.04;100215.73;84927;1344;23027;-73
2022/08/14 07:51:02;;;;;;;9.90;8.50;;;;;;;32.27;47.17;100212.83;84930;1341;22198;-73
2022/08/14 07:53:12;;;;;;;9.90;8.90;;;;;;;32.10;46.38;100208.94;84917;1344;22896;-73
2022/08/14 07:55:22;;;;;;;9.10;8.40;;;;;;;32.47;47.31;100208.56;84915;1347;22822;-73
2022/08/14 07:57:28;;;;;;;;;;;;;;;33.05;45.88;100206.62;84933;1341;22387;-72
2022/08/14 07:59:37;;;;;;;9.50;8.60;;;;;;;33.11;44.92;100205.24;84909;1344;22824;-72
2022/08/14 08:01:46;;;;;;;10.40;9.10;;;;;;;33.40;45.47;100205.23;84914;1344;22528;-73
2022/08/14 08:03:55;;;;;;;9.60;8.60;;;;;;;33.79;43.92;100208.15;84900;1345;22320;-73
2022/08/14 08:06:02;;;;;;;;;;;;;;;34.04;43.38;100205.04;84926;1347;22481;-72
2022/08/14 08:08:11;;;;;;;10.20;9.30;;;;;;;34.55;42.63;100210.67;84915;1343;22861;-72
2022/08/14 08:10:32;;;;;;;11.20;9.30;;;;;;;34.85;41.84;100206.38;84905;1344;22901;-72
2022/08/14 08:12:42;;;;;;;12.40;9.40;;;;;;;34.60;40.42;100211.34;84910;1344;22215;-72
2022/08/14 08:14:51;;;;;;;9.60;8.70;;;;;;;34.20;41.16;100210.10;84910;1344;22752;-72
2022/08/14 08:17:00;;;;;;;10.00;8.90;;;;;;;34.29;41.22;100213.65;84938;1344;22854;-73
2022/08/14 08:19:09;;;;;;;10.10;9.10;;;;;;;33.99;41.26;100210.33;84919;1344;22228;-73
2022/08/14 08:21:17;;;;;;;9.60;8.70;;;;;;;33.94;41.23;100207.52;84911;1344;22345;-73
2022/08/14 08:23:28;;;;;;;13.60;10.40;;;;;;;33.53;42.08;100204.13;84914;1342;22208;-73
2022/08/14 08:25:37;;;;;;;10.70;9.60;;;;;;;33.43;42.24;100203.94;84934;1344;23113;-73
2022/08/14 08:28:01;;;;;;;10.60;9.20;;;;;;;33.26;42.19;100210.15;84910;1344;22229;-72
2022/08/14 08:30:12;;;;;;;9.90;9.00;;;;;;;33.29;42.68;100205.10;84853;1341;22291;-72
2022/08/14 08:32:23;;;;;;;9.40;8.60;;;;;;;33.28;42.04;100202.52;84861;1347;22796;-72
2022/08/14 08:34:43;;;;;;;10.60;9.10;;;;;;;33.04;43.07;100203.70;84910;1344;23019;-72
2022/08/14 08:36:52;;;;;;;11.20;10.00;;;;;;;33.32;42.68;100206.26;84916;1348;22953;-72
2022/08/14 08:39:04;;;;;;;10.80;9.60;;;;;;;33.37;42.13;100201.35;84922;1345;23009;-72
2022/08/14 08:41:14;;;;;;;10.60;9.70;;;;;;;33.05;42.29;100202.62;84920;1344;22888;-72
2022/08/14 08:43:24;;;;;;;12.80;9.50;;;;;;;33.23;43.10;100197.30;84928;1348;22323;-72
2022/08/14 08:45:33;;;;;;;10.50;9.50;;;;;;;33.58;42.84;100204.16;84924;1344;22927;-72
2022/08/14 08:47:43;;;;;;;10.50;9.60;;;;;;;33.58;41.79;100201.20;84921;1343;22829;-72
2022/08/14 08:49:52;;;;;;;12.10;10.80;;;;;;;33.15;42.00;100205.83;84932;1344;23154;-72
2022/08/14 08:52:07;;;;;;;12.50;10.20;;;;;;;32.64;42.74;100204.35;84920;1344;23017;-72
2022/08/14 08:54:17;;;;;;;10.70;9.40;;;;;;;32.18;43.19;100201.67;84940;1344;22419;-73
2022/08/14 08:56:36;;;;;;;10.40;9.40;;;;;;;31.81;44.54;100205.58;84929;1344;22246;-73
2022/08/14 08:58:45;;;;;;;10.90;9.70;;;;;;;31.98;45.24;100201.56;84929;1344;22345;-72
2022/08/14 09:00:55;;;;;;;11.70;10.60;;;;;;;32.22;44.51;100202.48;84882;1347;22763;-72
2022/08/14 09:03:10;;;;;;;11.40;10.10;;;;;;;32.49;44.70;100198.58;84922;1344;22279;-73
2022/08/14 09:05:21;;;;;;;11.70;9.80;;;;;;;32.85;44.09;100196.42;84931;1344;22191;-73
2022/08/14 09:07:30;;;;;;;10.90;9.80;;;;;;;33.52;43.79;100202.13;84914;1345;22901;-73
2022/08/14 09:09:50;;;;;;;10.30;9.30;;;;;;;33.66;42.19;100201.01;84924;1344;22138;-73
2022/08/14 09:11:59;;;;;;;11.30;10.20;;;;;;;33.26;42.03;100201.36;84918;1341;22558;-72
2022/08/14 09:14:08;;;;;;;14.60;10.30;;;;;;;32.68;42.34;100202.36;84878;1345;22243;-72
2022/08/14 09:16:17;;;;;;;10.90;9.70;;;;;;;32.38;43.27;100199.71;84907;1346;22302;-72
2022/08/14 09:18:26;;;;;;;11.10;9.50;;;;;;;32.11;43.71;100196.79;84920;1345;22921;-72
2022/08/14 09:20:36;;;;;;;10.90;9.60;;;;;;;31.77;43.98;100195.70;84876;1347;22364;-72
2022/08/14 09:22:45;;;;;;;11.60;10.00;;;;;;;31.35;45.22;100195.92;84932;1347;22893;-72
2022/08/14 09:24:54;;;;;;;11.00;10.10;;;;;;;31.04;45.78;100193.21;84907;1344;23117;-72
2022/08/14 09:27:02;;;;;;;11.60;10.10;;;;;;;30.75;46.25;100194.13;84938;1344;22167;-72
2022/08/14 09:29:12;;;;;;;11.70;10.60;;;;;;;30.51;46.93;100194.00;84930;1347;22913;-72
2022/08/14 09:31:19;;;;;;;;;;;;;;;30.28;47.28;100190.15;84941;1344;22388;-72
2022/08/14 09:33:42;;;;;;;14.50;9.70;;;;;;;30.00;47.92;100190.15;84871;1345;22307;-72
2022/08/14 09:36:03;;;;;;;10.50;9.40;;;;;;;29.73;48.24;100186.63;84918;1345;22242;-72
2022/08/14 09:38:22;;;;;;;13.50;10.10;;;;;;;29.42;48.96;100186.45;84925;1344;23007;-73
2022/08/14 09:40:42;;;;;;;15.50;11.70;;;;;;;29.18;49.55;100187.32;84886;1347;22225;-72
2022/08/14 09:43:00;;;;;;;11.40;10.30;;;;;;;29.03;50.21;100186.02;84912;1344;22206;-72
2022/08/14 09:45:16;;;;;;;10.80;9.70;;;;;;;28.92;50.66;100185.93;84928;1344;22201;-72
2022/08/14 09:50:01;;;;;;;13.50;10.90;;;;;;;28.74;51.34;100183.88;81916;1371;545062;-71
2022/08/14 09:52:13;;;;;;;12.10;11.00;;;;;;;28.59;51.53;100188.77;84242;1338;22610;-73
2022/08/14 09:54:21;;;;;;;13.90;10.60;;;;;;;28.41;52.11;100186.00;84504;1333;22754;-72
2022/08/14 09:56:42;;;;;;;12.00;10.40;;;;;;;28.28;52.42;100180.77;84559;1334;22860;-72
2022/08/14 09:58:51;;;;;;;11.70;10.60;;;;;;;28.20;53.08;100179.95;84498;1330;22632;-72
2022/08/14 10:01:07;;;;;;;15.20;11.80;;;;;;;28.13;53.32;100178.20;84462;1333;22595;-71
2022/08/14 10:03:29;;;;;;;12.90;11.10;;;;;;;28.10;53.32;100175.20;84177;1331;529445;-70
2022/08/14 10:05:38;;;;;;;11.80;10.70;;;;;;;28.08;53.87;100175.58;84623;1330;23976;-71
2022/08/14 10:07:52;;;;;;;13.70;11.20;;;;;;;28.08;54.28;100172.04;84673;1329;24039;-72
2022/08/14 10:10:01;;;;;;;14.20;10.90;;;;;;;28.05;53.94;100169.71;84578;1330;22582;-72
2022/08/14 10:12:10;;;;;;;14.00;11.90;;;;;;;27.97;54.11;100171.10;84615;1329;22626;-71
2022/08/14 10:14:20;;;;;;;12.00;10.80;;;;;;;27.94;54.45;100170.42;84674;1331;22590;-71
2022/08/14 10:16:29;;;;;;;12.00;10.80;;;;;;;27.99;54.52;100164.66;84586;1330;23947;-72
2022/08/14 10:18:39;;;;;;;12.50;10.70;;;;;;;28.01;54.79;100160.58;84645;1330;24552;-72
2022/08/14 10:20:56;;;;;;;12.90;11.60;;;;;;;28.12;55.39;100157.43;84580;1327;22873;-72
2022/08/14 10:23:15;;;;;;;12.20;10.70;;;;;;;28.32;55.90;100159.77;84592;1330;22698;-72